createdAt,value
2023-03-29T00:02:11.395Z,0.82
2023-03-29T00:04:39.482Z,1.00
2023-03-29T00:07:08.275Z,0.93
2023-03-29T00:09:35.840Z,0.85
2023-03-29T00:12:04.010Z,2.25
2023-03-29T00:14:31.543Z,1.00
2023-03-29T00:16:59.273Z,0.68
2023-03-29T00:19:26.996Z,0.70
2023-03-29T00:21:54.469Z,1.92
2023-03-29T00:24:23.864Z,0.80
2023-03-29T00:26:51.584Z,0.85
2023-03-29T00:29:19.150Z,0.88
2023-03-29T00:31:52.424Z,1.17
2023-03-29T00:34:21.000Z,1.77
2023-03-29T00:36:52.999Z,0.93
2023-03-29T00:39:21.159Z,0.75
2023-03-29T00:41:50.064Z,0.98
2023-03-29T00:44:54.994Z,1.20
2023-03-29T00:47:42.616Z,1.30
2023-03-29T00:50:17.060Z,1.37
2023-03-29T00:52:47.559Z,0.85
2023-03-29T00:55:18.794Z,1.95
2023-03-29T00:57:46.890Z,1.23
2023-03-29T01:00:18.211Z,1.83
2023-03-29T01:02:51.118Z,0.60
2023-03-29T01:05:22.720Z,0.95
2023-03-29T01:07:59.455Z,1.60
2023-03-29T01:10:37.728Z,2.90
2023-03-29T01:13:09.651Z,1.60
2023-03-29T01:15:39.018Z,1.33
2023-03-29T01:18:06.881Z,1.25
2023-03-29T01:21:23.768Z,1.65
2023-03-29T01:24:24.850Z,1.58
2023-03-29T01:27:14.770Z,2.25
2023-03-29T01:29:54.240Z,0.93
2023-03-29T01:32:25.144Z,1.15
2023-03-29T01:34:59.986Z,2.60
2023-03-29T01:37:32.419Z,0.60
2023-03-29T01:40:00.856Z,0.90
2023-03-29T01:42:40.831Z,0.73
2023-03-29T01:45:56.185Z,1.20
2023-03-29T01:48:29.592Z,1.27
2023-03-29T01:51:05.526Z,2.47
2023-03-29T01:53:40.609Z,1.05
2023-03-29T01:56:12.548Z,0.73
2023-03-29T01:58:44.806Z,1.48
2023-03-29T02:01:17.691Z,1.02
2023-03-29T02:03:50.021Z,2.03
2023-03-29T02:06:20.671Z,1.30
2023-03-29T02:08:48.728Z,0.60
2023-03-29T02:11:16.328Z,0.70
2023-03-29T02:13:44.028Z,1.17
2023-03-29T02:16:13.229Z,1.50
2023-03-29T02:18:46.562Z,1.02
2023-03-29T02:21:24.424Z,0.98
2023-03-29T02:23:54.756Z,0.77
2023-03-29T02:26:23.991Z,1.00
2023-03-29T02:28:52.826Z,1.73
2023-03-29T02:31:34.023Z,2.37
2023-03-29T02:34:43.509Z,1.17
2023-03-29T02:37:15.783Z,2.62
2023-03-29T02:39:43.921Z,2.60
2023-03-29T02:42:11.522Z,2.35
2023-03-29T02:44:41.317Z,1.40
2023-03-29T02:47:25.253Z,2.37
2023-03-29T02:49:53.118Z,1.30
2023-03-29T02:52:27.513Z,1.85
2023-03-29T02:54:55.814Z,2.15
2023-03-29T02:57:26.819Z,1.75
2023-03-29T02:59:55.750Z,2.03
2023-03-29T03:02:27.910Z,0.70
2023-03-29T03:04:55.483Z,1.30
2023-03-29T03:07:24.923Z,1.52
2023-03-29T03:09:52.751Z,0.95
2023-03-29T03:12:20.320Z,0.85
2023-03-29T03:14:48.329Z,0.98
2023-03-29T03:17:15.834Z,0.73
2023-03-29T03:19:43.357Z,1.17
2023-03-29T03:22:11.643Z,0.80
2023-03-29T03:24:39.060Z,0.77
2023-03-29T03:27:08.517Z,0.70
2023-03-29T03:29:38.493Z,5.07
2023-03-29T03:32:06.496Z,2.05
2023-03-29T03:34:36.378Z,1.30
2023-03-29T03:37:04.055Z,1.95
2023-03-29T03:39:32.651Z,0.80
2023-03-29T03:42:00.406Z,0.88
2023-03-29T03:44:28.616Z,1.95
2023-03-29T03:46:56.706Z,0.82
2023-03-29T03:49:24.403Z,1.05
2023-03-29T03:51:53.154Z,0.95
2023-03-29T03:54:20.551Z,1.75
2023-03-29T03:56:49.124Z,1.23
2023-03-29T03:59:17.088Z,0.93
2023-03-29T04:01:45.384Z,2.33
2023-03-29T04:04:14.458Z,1.08
2023-03-29T04:06:44.170Z,0.93
2023-03-29T04:09:14.330Z,1.25
2023-03-29T04:11:42.412Z,2.25
2023-03-29T04:14:11.231Z,0.98
2023-03-29T04:16:39.855Z,1.10
2023-03-29T04:19:08.393Z,1.55
2023-03-29T04:21:35.942Z,0.80
2023-03-29T04:24:03.717Z,1.27
2023-03-29T04:26:31.939Z,0.80
2023-03-29T04:29:01.420Z,0.60
2023-03-29T04:31:30.993Z,1.60
2023-03-29T04:34:00.412Z,1.20
2023-03-29T04:36:28.363Z,1.23
2023-03-29T04:38:56.276Z,1.62
2023-03-29T04:41:26.003Z,1.40
2023-03-29T04:43:56.074Z,0.75
2023-03-29T04:46:27.054Z,1.17
2023-03-29T04:48:56.132Z,0.88
2023-03-29T04:51:24.788Z,1.23
2023-03-29T04:53:52.380Z,0.80
2023-03-29T04:56:19.849Z,1.30
2023-03-29T04:58:49.778Z,1.02
2023-03-29T05:01:17.861Z,0.80
2023-03-29T05:03:45.969Z,1.05
2023-03-29T05:06:14.269Z,0.93
2023-03-29T05:08:41.921Z,1.15
2023-03-29T05:11:10.915Z,0.70
2023-03-29T05:13:38.636Z,0.75
2023-03-29T05:16:06.969Z,1.17
2023-03-29T05:18:34.701Z,0.80
2023-03-29T05:21:04.643Z,1.02
2023-03-29T05:23:32.663Z,1.48
2023-03-29T05:26:01.862Z,4.97
2023-03-29T05:28:29.598Z,4.50
2023-03-29T05:31:05.161Z,6.62
2023-03-29T05:33:34.613Z,5.53
2023-03-29T05:36:05.184Z,3.30
2023-03-29T05:38:34.675Z,4.72
2023-03-29T05:41:03.492Z,3.10
2023-03-29T05:43:34.074Z,3.75
2023-03-29T05:46:02.100Z,5.03
2023-03-29T05:48:30.096Z,2.65
2023-03-29T05:50:57.859Z,3.53
2023-03-29T05:53:27.527Z,2.40
2023-03-29T05:55:55.170Z,3.20
2023-03-29T05:58:23.058Z,1.77
2023-03-29T06:00:51.299Z,2.03
2023-03-29T06:03:23.743Z,3.50
2023-03-29T06:06:04.905Z,1.90
2023-03-29T06:08:34.012Z,1.48
2023-03-29T06:11:05.194Z,1.30
2023-03-29T06:13:35.089Z,2.05
2023-03-29T06:16:02.492Z,2.62
2023-03-29T06:18:30.186Z,2.33
2023-03-29T06:20:57.918Z,2.97
2023-03-29T06:23:25.910Z,3.00
2023-03-29T06:25:53.660Z,4.53
2023-03-29T06:28:21.899Z,4.28
2023-03-29T06:30:49.961Z,4.70
2023-03-29T06:33:18.846Z,2.15
2023-03-29T06:35:48.627Z,4.35
2023-03-29T06:38:16.719Z,1.73
2023-03-29T06:40:45.630Z,2.50
2023-03-29T06:43:14.149Z,2.83
2023-03-29T06:45:43.468Z,1.90
2023-03-29T06:48:12.405Z,1.55
2023-03-29T06:50:41.398Z,2.03
2023-03-29T06:53:09.441Z,1.40
2023-03-29T06:55:36.862Z,2.17
2023-03-29T06:58:09.265Z,2.15
2023-03-29T07:00:39.133Z,2.17
2023-03-29T07:03:09.931Z,1.65
2023-03-29T07:05:40.846Z,1.40
2023-03-29T07:08:08.778Z,1.80
2023-03-29T07:10:39.534Z,1.48
2023-03-29T07:13:12.165Z,1.58
2023-03-29T07:15:41.824Z,1.37
2023-03-29T07:18:10.900Z,1.87
2023-03-29T07:20:39.074Z,1.75
2023-03-29T07:23:08.130Z,1.35
2023-03-29T07:25:36.454Z,1.20
2023-03-29T07:28:04.834Z,0.55
2023-03-29T07:30:32.836Z,1.25
2023-03-29T07:33:05.866Z,0.98
2023-03-29T07:35:34.022Z,1.37
2023-03-29T07:38:01.850Z,1.60
2023-03-29T07:40:29.515Z,1.20
2023-03-29T07:43:11.058Z,1.42
2023-03-29T07:45:42.372Z,0.68
2023-03-29T07:48:10.495Z,1.05
2023-03-29T07:50:39.163Z,1.05
2023-03-29T07:53:07.279Z,0.50
2023-03-29T07:55:35.326Z,0.77
2023-03-29T07:58:04.369Z,0.82
2023-03-29T08:00:34.217Z,1.05
2023-03-29T08:03:04.299Z,0.73
2023-03-29T08:05:40.899Z,1.27
2023-03-29T08:08:10.053Z,1.10
2023-03-29T08:10:39.452Z,0.98
2023-03-29T08:13:09.643Z,1.25
2023-03-29T08:15:39.604Z,0.85
2023-03-29T08:18:08.486Z,1.15
2023-03-29T08:20:36.340Z,0.68
2023-03-29T08:23:04.809Z,0.50
2023-03-29T08:25:32.957Z,0.80
2023-03-29T08:28:00.523Z,1.08
2023-03-29T08:30:29.160Z,0.70
2023-03-29T08:32:56.976Z,1.25
2023-03-29T08:35:24.595Z,1.10
2023-03-29T08:37:52.867Z,0.70
2023-03-29T08:40:22.420Z,0.80
2023-03-29T08:43:14.364Z,1.40
2023-03-29T08:45:52.169Z,0.85
2023-03-29T08:48:29.967Z,0.90
2023-03-29T08:51:18.083Z,1.05
2023-03-29T08:54:00.624Z,1.15
2023-03-29T08:56:33.500Z,0.62
2023-03-29T08:59:03.490Z,1.20
2023-03-29T09:01:38.395Z,1.15
2023-03-29T09:04:17.096Z,1.62
2023-03-29T09:06:45.407Z,1.23
2023-03-29T09:09:16.027Z,1.05
2023-03-29T09:12:02.817Z,1.02
2023-03-29T09:14:52.733Z,0.60
2023-03-29T09:17:49.052Z,1.35
2023-03-29T09:20:33.248Z,1.27
2023-03-29T09:23:22.462Z,0.95
2023-03-29T09:26:03.059Z,1.83
2023-03-29T09:28:38.248Z,1.15
2023-03-29T09:31:10.268Z,1.50
2023-03-29T09:33:45.033Z,1.10
2023-03-29T09:36:24.183Z,0.77
2023-03-29T09:38:54.406Z,0.60
2023-03-29T09:41:44.106Z,1.42
2023-03-29T09:46:53.958Z,0.85
2023-03-29T09:49:27.418Z,1.00
2023-03-29T09:51:58.185Z,1.10
2023-03-29T09:54:26.083Z,1.02
2023-03-29T09:56:54.615Z,0.65
2023-03-29T09:59:22.731Z,1.25
2023-03-29T10:01:50.299Z,1.05
2023-03-29T10:04:18.104Z,0.88
2023-03-29T10:06:50.290Z,1.65
2023-03-29T10:09:24.082Z,2.15
2023-03-29T10:11:53.944Z,1.92
2023-03-29T10:14:37.135Z,1.77
2023-03-29T10:17:07.121Z,1.05
2023-03-29T10:19:36.090Z,1.55
2023-03-29T10:22:23.322Z,2.35
2023-03-29T10:24:52.880Z,1.75
2023-03-29T10:27:31.379Z,1.60
2023-03-29T10:30:01.030Z,1.33
2023-03-29T10:32:33.636Z,1.40
2023-03-29T10:35:13.334Z,2.03
2023-03-29T10:37:45.283Z,2.08
2023-03-29T10:40:24.746Z,1.40
2023-03-29T10:42:54.014Z,1.48
2023-03-29T10:45:26.501Z,2.78
2023-03-29T10:47:56.842Z,1.75
2023-03-29T10:50:26.708Z,1.37
2023-03-29T10:52:54.207Z,1.33
2023-03-29T10:55:22.141Z,1.60
2023-03-29T10:57:56.269Z,1.62
2023-03-29T11:00:33.384Z,2.15
2023-03-29T11:03:23.549Z,1.55
2023-03-29T11:05:58.727Z,1.12
2023-03-29T11:08:43.456Z,2.15
2023-03-29T11:11:13.814Z,1.75
2023-03-29T11:13:48.023Z,2.62
2023-03-29T11:16:23.775Z,1.90
2023-03-29T11:19:21.857Z,1.83
2023-03-29T11:22:04.684Z,1.23
2023-03-29T11:24:38.285Z,1.35
2023-03-29T11:27:36.950Z,1.58
2023-03-29T11:30:13.666Z,1.37
2023-03-29T11:32:48.546Z,1.95
2023-03-29T11:35:28.398Z,2.25
2023-03-29T11:38:02.212Z,1.70
2023-03-29T11:40:57.678Z,1.30
2023-03-29T11:43:31.186Z,1.37
2023-03-29T11:46:21.757Z,1.05
2023-03-29T11:48:54.233Z,1.60
2023-03-29T11:52:01.067Z,1.12
2023-03-29T11:54:34.499Z,2.35
2023-03-29T11:57:14.839Z,1.75
2023-03-29T12:00:18.989Z,3.40
2023-03-29T12:02:57.018Z,0.93
2023-03-29T12:05:27.441Z,1.20
2023-03-29T12:08:07.278Z,1.40
2023-03-29T12:10:57.683Z,1.37
2023-03-29T12:13:38.842Z,0.88
2023-03-29T12:16:20.677Z,2.45
2023-03-29T12:18:50.493Z,1.70
2023-03-29T12:21:22.738Z,1.83
2023-03-29T12:23:51.933Z,1.62
2023-03-29T12:26:34.356Z,1.65
2023-03-29T12:29:15.634Z,1.67
2023-03-29T12:32:04.380Z,1.42
2023-03-29T12:34:58.546Z,2.12
2023-03-29T12:37:36.041Z,2.28
2023-03-29T12:40:15.592Z,2.12
2023-03-29T12:43:02.538Z,3.15
2023-03-29T12:45:38.124Z,1.70
2023-03-29T12:48:07.553Z,2.03
2023-03-29T12:50:48.375Z,1.40
2023-03-29T12:53:19.012Z,1.33
2023-03-29T12:55:55.145Z,1.15
2023-03-29T12:58:40.613Z,1.50
2023-03-29T13:01:36.971Z,1.70
2023-03-29T13:04:13.847Z,2.53
2023-03-29T13:06:47.539Z,2.05
2023-03-29T13:09:35.290Z,1.33
2023-03-29T13:12:11.718Z,2.25
2023-03-29T13:14:45.442Z,2.55
2023-03-29T13:17:22.814Z,2.22
2023-03-29T13:20:12.515Z,1.52
2023-03-29T13:22:47.929Z,2.15
2023-03-29T13:25:34.392Z,1.75
2023-03-29T13:28:12.262Z,1.55
2023-03-29T13:30:43.833Z,1.05
2023-03-29T13:33:30.089Z,2.20
2023-03-29T13:36:20.047Z,2.03
2023-03-29T13:38:49.538Z,1.45
2023-03-29T13:41:51.745Z,1.70
2023-03-29T13:44:22.238Z,2.17
2023-03-29T13:47:02.149Z,1.45
2023-03-29T13:49:31.733Z,2.42
2023-03-29T13:52:05.388Z,1.92
2023-03-29T13:54:37.513Z,1.85
2023-03-29T13:57:08.869Z,1.75
2023-03-29T13:59:45.188Z,1.65
2023-03-29T14:02:29.523Z,2.33
2023-03-29T14:04:59.923Z,1.33
2023-03-29T14:07:29.053Z,2.20
2023-03-29T14:09:58.682Z,3.10
2023-03-29T14:12:29.531Z,2.55
2023-03-29T14:15:00.976Z,1.50
2023-03-29T14:17:29.250Z,2.15
2023-03-29T14:19:58.924Z,2.15
2023-03-29T14:22:31.282Z,2.12
2023-03-29T14:25:02.844Z,1.30
2023-03-29T14:27:31.852Z,1.95
2023-03-29T14:29:59.973Z,1.12
2023-03-29T14:32:29.626Z,1.55
2023-03-29T14:34:58.005Z,1.60
2023-03-29T14:37:27.712Z,1.70
2023-03-29T14:39:56.445Z,1.37
2023-03-29T14:42:28.429Z,1.45
2023-03-29T14:45:04.278Z,1.40
2023-03-29T14:47:33.165Z,1.52
2023-03-29T14:50:01.676Z,2.12
2023-03-29T14:52:30.823Z,1.77
2023-03-29T14:55:02.344Z,1.75
2023-03-29T14:57:35.471Z,1.92
2023-03-29T15:00:28.443Z,1.55
2023-03-29T15:03:01.480Z,1.23
2023-03-29T15:05:33.899Z,1.67
2023-03-29T15:08:02.343Z,1.75
2023-03-29T15:10:32.900Z,1.08
2023-03-29T15:13:02.743Z,2.53
2023-03-29T15:15:32.263Z,1.10
2023-03-29T15:18:00.491Z,1.30
2023-03-29T15:20:29.945Z,1.85
2023-03-29T15:23:14.461Z,1.70
2023-03-29T15:25:59.287Z,1.45
2023-03-29T15:28:28.411Z,1.85
2023-03-29T15:31:07.975Z,1.42
2023-03-29T15:33:38.502Z,1.95
2023-03-29T15:36:08.131Z,2.28
2023-03-29T15:38:43.888Z,2.30
2023-03-29T15:41:14.202Z,2.15
2023-03-29T15:43:42.659Z,1.98
2023-03-29T15:46:14.028Z,1.50
2023-03-29T15:48:42.290Z,2.37
2023-03-29T15:51:12.511Z,2.22
2023-03-29T15:53:40.416Z,2.30
2023-03-29T15:56:11.324Z,2.42
2023-03-29T15:58:39.196Z,2.00
2023-03-29T16:01:34.152Z,2.25
2023-03-29T16:04:02.851Z,3.15
2023-03-29T16:06:30.833Z,1.23
2023-03-29T16:08:58.274Z,1.40
2023-03-29T16:11:28.386Z,1.75
2023-03-29T16:13:56.596Z,2.47
2023-03-29T16:16:24.357Z,2.25
2023-03-29T16:18:52.092Z,2.15
2023-03-29T16:21:22.235Z,1.80
2023-03-29T16:23:50.036Z,2.42
2023-03-29T16:26:17.856Z,1.45
2023-03-29T16:28:45.409Z,2.70
2023-03-29T16:31:13.643Z,1.80
2023-03-29T16:33:41.621Z,2.20
2023-03-29T16:36:09.903Z,2.30
2023-03-29T16:38:37.532Z,2.50
2023-03-29T16:41:05.598Z,2.80
2023-03-29T16:43:33.204Z,2.08
2023-03-29T16:46:00.660Z,2.33
2023-03-29T16:48:28.517Z,1.95
2023-03-29T16:50:56.020Z,1.98
2023-03-29T16:53:23.737Z,1.83
2023-03-29T16:55:51.565Z,1.05
2023-03-29T16:58:19.179Z,1.25
2023-03-29T17:00:48.479Z,1.67
2023-03-29T17:03:16.861Z,0.90
2023-03-29T17:05:52.117Z,0.75
2023-03-29T17:10:52.755Z,1.20
2023-03-29T17:13:22.043Z,1.40
2023-03-29T17:15:53.770Z,1.05
2023-03-29T17:18:22.645Z,1.12
2023-03-29T17:20:51.326Z,0.82
2023-03-29T17:23:18.834Z,0.70
2023-03-29T17:25:46.824Z,0.90
2023-03-29T17:28:14.415Z,1.27
2023-03-29T17:30:46.218Z,1.58
2023-03-29T17:33:14.278Z,0.82
2023-03-29T17:35:44.919Z,0.65
2023-03-29T17:38:12.473Z,1.27
2023-03-29T17:40:40.143Z,1.65
2023-03-29T17:43:07.588Z,1.45
2023-03-29T17:45:35.550Z,1.52
2023-03-29T17:48:06.077Z,1.85
2023-03-29T17:50:34.418Z,1.10
2023-03-29T17:53:02.011Z,1.25
2023-03-29T17:55:29.666Z,1.35
2023-03-29T17:57:57.212Z,1.20
2023-03-29T18:00:24.867Z,1.42
2023-03-29T18:02:52.860Z,0.98
2023-03-29T18:05:20.396Z,1.55
2023-03-29T18:07:47.809Z,1.37
2023-03-29T18:10:15.843Z,1.08
2023-03-29T18:12:43.250Z,1.80
2023-03-29T18:15:11.245Z,1.67
2023-03-29T18:17:39.159Z,1.55
2023-03-29T18:20:11.112Z,0.98
2023-03-29T18:22:40.075Z,2.08
2023-03-29T18:25:09.510Z,1.45
2023-03-29T18:27:38.310Z,1.55
2023-03-29T18:30:08.644Z,1.48
2023-03-29T18:32:36.781Z,1.50
2023-03-29T18:35:05.049Z,1.15
2023-03-29T18:37:33.166Z,1.52
2023-03-29T18:40:00.608Z,1.65
2023-03-29T18:42:28.249Z,1.17
2023-03-29T18:44:57.180Z,1.25
2023-03-29T18:47:24.666Z,1.42
2023-03-29T18:49:52.367Z,1.85
2023-03-29T18:52:20.327Z,2.25
2023-03-29T18:54:47.744Z,1.52
2023-03-29T18:57:15.439Z,1.33
2023-03-29T18:59:43.403Z,1.58
2023-03-29T19:02:11.181Z,1.75
2023-03-29T19:04:39.013Z,2.72
2023-03-29T19:07:08.845Z,2.15
2023-03-29T19:09:36.266Z,1.55
2023-03-29T19:12:04.075Z,1.77
2023-03-29T19:14:31.920Z,2.08
2023-03-29T19:16:59.482Z,2.00
2023-03-29T19:19:27.778Z,1.55
2023-03-29T19:21:57.699Z,2.37
2023-03-29T19:24:27.450Z,1.27
2023-03-29T19:26:56.560Z,1.62
2023-03-29T19:29:24.230Z,1.75
2023-03-29T19:31:52.013Z,2.08
2023-03-29T19:34:22.865Z,2.00
2023-03-29T19:36:51.571Z,14.55
2023-03-29T19:39:19.385Z,5.37
2023-03-29T19:41:47.390Z,1.80
2023-03-29T19:44:15.667Z,2.28
2023-03-29T19:46:43.365Z,1.67
2023-03-29T19:49:13.680Z,1.77
2023-03-29T19:51:42.379Z,3.42
2023-03-29T19:54:12.200Z,2.17
2023-03-29T19:56:40.731Z,2.53
2023-03-29T19:59:11.002Z,2.45
2023-03-29T20:01:40.653Z,2.47
2023-03-29T20:04:09.211Z,2.70
2023-03-29T20:06:36.803Z,2.05
2023-03-29T20:09:05.209Z,5.43
2023-03-29T20:11:32.962Z,2.75
2023-03-29T20:14:00.670Z,2.75
2023-03-29T20:16:29.790Z,1.52
2023-03-29T20:18:57.528Z,2.62
2023-03-29T20:21:25.066Z,3.75
2023-03-29T20:23:52.644Z,2.30
2023-03-29T20:26:20.309Z,2.75
2023-03-29T20:28:47.933Z,2.20
2023-03-29T20:31:15.867Z,2.15
2023-03-29T20:33:44.480Z,2.60
2023-03-29T20:36:12.316Z,2.53
2023-03-29T20:38:39.730Z,2.55
2023-03-29T20:41:09.253Z,2.25
2023-03-29T20:43:37.876Z,2.15
2023-03-29T20:46:14.308Z,2.10
2023-03-29T20:48:54.680Z,2.50
2023-03-29T20:51:28.113Z,3.10
2023-03-29T20:54:04.491Z,2.37
2023-03-29T20:56:34.335Z,3.62
2023-03-29T20:59:02.974Z,3.20
2023-03-29T21:01:30.780Z,4.68
2023-03-29T21:03:58.307Z,5.95
2023-03-29T21:06:26.096Z,8.80
2023-03-29T21:08:53.562Z,7.85
2023-03-29T21:11:21.045Z,7.35
2023-03-29T21:13:48.807Z,5.68
2023-03-29T21:16:16.233Z,5.87
2023-03-29T21:18:43.707Z,4.70
2023-03-29T21:21:11.911Z,3.60
2023-03-29T21:23:39.458Z,4.70
2023-03-29T21:26:07.808Z,4.20
2023-03-29T21:28:37.586Z,4.43
2023-03-29T21:31:06.287Z,4.07
2023-03-29T21:33:34.900Z,3.67
2023-03-29T21:36:02.745Z,3.87
2023-03-29T21:38:30.685Z,4.32
2023-03-29T21:40:58.267Z,3.55
2023-03-29T21:43:26.163Z,3.42
2023-03-29T21:45:53.671Z,4.68
2023-03-29T21:48:21.043Z,3.90
2023-03-29T21:50:50.098Z,3.75
2023-03-29T21:53:18.302Z,3.75
2023-03-29T21:55:48.549Z,4.87
2023-03-29T21:58:16.698Z,2.87
2023-03-29T22:00:45.466Z,3.15
2023-03-29T22:03:14.389Z,2.97
2023-03-29T22:05:42.039Z,4.50
2023-03-29T22:08:12.315Z,4.68
2023-03-29T22:10:43.044Z,4.18
2023-03-29T22:13:10.455Z,4.07
2023-03-29T22:15:38.939Z,2.20
2023-03-29T22:18:06.764Z,3.80
2023-03-29T22:20:34.243Z,4.00
2023-03-29T22:23:01.772Z,3.85
2023-03-29T22:25:29.474Z,3.75
2023-03-29T22:27:56.907Z,2.75
2023-03-29T22:30:24.265Z,2.80
2023-03-29T22:32:52.023Z,2.95
2023-03-29T22:35:19.806Z,3.20
2023-03-29T22:37:47.188Z,4.78
2023-03-29T22:40:14.903Z,3.12
2023-03-29T22:42:42.319Z,5.25
2023-03-29T22:45:10.372Z,5.03
2023-03-29T22:47:38.220Z,4.78
2023-03-29T22:50:07.222Z,5.57
2023-03-29T22:52:34.657Z,4.57
2023-03-29T22:55:02.416Z,5.35
2023-03-29T22:57:29.901Z,4.65
2023-03-29T22:59:57.371Z,5.72
2023-03-29T23:02:25.219Z,4.65
2023-03-29T23:04:52.760Z,2.75
2023-03-29T23:07:20.776Z,3.70
2023-03-29T23:09:48.651Z,2.53
2023-03-29T23:12:16.262Z,3.25
2023-03-29T23:14:45.183Z,2.30
2023-03-29T23:17:13.524Z,4.37
2023-03-29T23:19:41.637Z,4.35
2023-03-29T23:22:09.112Z,2.00
2023-03-29T23:24:36.865Z,3.15
2023-03-29T23:27:05.591Z,4.37
2023-03-29T23:29:34.515Z,2.80
2023-03-29T23:32:02.793Z,4.03
2023-03-29T23:34:30.671Z,3.97
2023-03-29T23:36:58.268Z,2.50
2023-03-29T23:39:25.925Z,2.95
2023-03-29T23:41:53.331Z,2.87
2023-03-29T23:44:20.711Z,3.20
2023-03-29T23:46:48.477Z,2.55
2023-03-29T23:49:17.238Z,3.03
2023-03-29T23:51:45.050Z,4.75
2023-03-29T23:54:12.962Z,4.53
2023-03-29T23:56:40.436Z,4.12
2023-03-29T23:59:07.851Z,3.80
